sensor_id;sensor_type;location;lat;lon;timestamp;temperature;humidity
12130;DHT22;6128;59.340;18.040;2023-12-04T00:01:18;-6.90;99.90
12130;DHT22;6128;59.340;18.040;2023-12-04T00:03:46;-6.90;99.90
12130;DHT22;6128;59.340;18.040;2023-12-04T00:06:13;-6.90;99.90
12130;DHT22;6128;59.340;18.040;2023-12-04T00:08:41;-6.90;99.90
12130;DHT22;6128;59.340;18.040;2023-12-04T00:11:08;-6.80;99.90
12130;DHT22;6128;59.340;18.040;2023-12-04T00:13:35;-6.80;99.90
12130;DHT22;6128;59.340;18.040;2023-12-04T00:16:02;-6.80;99.90
12130;DHT22;6128;59.340;18.040;2023-12-04T00:18:31;-6.80;99.90
12130;DHT22;6128;59.340;18.040;2023-12-04T00:20:58;-6.80;99.90
12130;DHT22;6128;59.340;18.040;2023-12-04T00:23:25;-6.80;99.90
12130;DHT22;6128;59.340;18.040;2023-12-04T00:25:54;-6.80;99.90
12130;DHT22;6128;59.340;18.040;2023-12-04T00:28:21;-6.80;99.90
12130;DHT22;6128;59.340;18.040;2023-12-04T00:30:49;-6.90;99.90
12130;DHT22;6128;59.340;18.040;2023-12-04T00:33:16;-6.90;99.90
12130;DHT22;6128;59.340;18.040;2023-12-04T00:35:44;-6.80;99.90
12130;DHT22;6128;59.340;18.040;2023-12-04T00:38:11;-6.80;99.90
12130;DHT22;6128;59.340;18.040;2023-12-04T00:40:38;-6.80;99.90
12130;DHT22;6128;59.340;18.040;2023-12-04T00:43:06;-6.80;99.90
12130;DHT22;6128;59.340;18.040;2023-12-04T00:45:33;-6.80;99.90
12130;DHT22;6128;59.340;18.040;2023-12-04T00:48:00;-6.80;99.90
12130;DHT22;6128;59.340;18.040;2023-12-04T00:50:27;-6.80;99.90
12130;DHT22;6128;59.340;18.040;2023-12-04T00:52:55;-6.80;99.90
12130;DHT22;6128;59.340;18.040;2023-12-04T00:55:22;-6.90;99.90
12130;DHT22;6128;59.340;18.040;2023-12-04T00:57:49;-6.90;99.90
12130;DHT22;6128;59.340;18.040;2023-12-04T01:00:17;-7.00;99.90
12130;DHT22;6128;59.340;18.040;2023-12-04T01:02:44;-7.00;99.90
12130;DHT22;6128;59.340;18.040;2023-12-04T01:05:11;-6.90;99.90
12130;DHT22;6128;59.340;18.040;2023-12-04T01:07:38;-6.90;99.90
12130;DHT22;6128;59.340;18.040;2023-12-04T01:10:08;-6.90;99.90
12130;DHT22;6128;59.340;18.040;2023-12-04T01:12:35;-6.90;99.90
12130;DHT22;6128;59.340;18.040;2023-12-04T01:15:02;-6.80;99.90
12130;DHT22;6128;59.340;18.040;2023-12-04T01:17:32;-6.90;99.90
12130;DHT22;6128;59.340;18.040;2023-12-04T01:20:00;-6.80;99.90
12130;DHT22;6128;59.340;18.040;2023-12-04T01:22:27;-6.80;99.90
12130;DHT22;6128;59.340;18.040;2023-12-04T01:24:54;-6.80;99.90
12130;DHT22;6128;59.340;18.040;2023-12-04T01:27:22;-6.80;99.90
12130;DHT22;6128;59.340;18.040;2023-12-04T01:29:49;-6.80;99.90
12130;DHT22;6128;59.340;18.040;2023-12-04T01:32:16;-6.70;99.90
12130;DHT22;6128;59.340;18.040;2023-12-04T01:34:43;-6.70;99.90
12130;DHT22;6128;59.340;18.040;2023-12-04T01:37:11;-6.70;99.90
12130;DHT22;6128;59.340;18.040;2023-12-04T01:39:38;-6.70;99.90
12130;DHT22;6128;59.340;18.040;2023-12-04T01:42:05;-6.70;99.90
12130;DHT22;6128;59.340;18.040;2023-12-04T01:44:34;-6.70;99.90
12130;DHT22;6128;59.340;18.040;2023-12-04T01:47:01;-6.70;99.90
12130;DHT22;6128;59.340;18.040;2023-12-04T01:49:29;-6.70;99.90
12130;DHT22;6128;59.340;18.040;2023-12-04T01:51:57;-6.80;99.90
12130;DHT22;6128;59.340;18.040;2023-12-04T01:54:24;-6.80;99.90
12130;DHT22;6128;59.340;18.040;2023-12-04T01:56:52;-6.80;99.90
12130;DHT22;6128;59.340;18.040;2023-12-04T01:59:19;-6.80;99.90
12130;DHT22;6128;59.340;18.040;2023-12-04T02:01:48;-6.90;99.90
12130;DHT22;6128;59.340;18.040;2023-12-04T02:04:15;-7.00;99.90
12130;DHT22;6128;59.340;18.040;2023-12-04T02:06:42;-7.00;99.90
12130;DHT22;6128;59.340;18.040;2023-12-04T02:09:09;-7.00;99.90
12130;DHT22;6128;59.340;18.040;2023-12-04T02:11:38;-7.10;99.90
12130;DHT22;6128;59.340;18.040;2023-12-04T02:14:06;-7.10;99.90
12130;DHT22;6128;59.340;18.040;2023-12-04T02:16:36;-7.10;99.90
12130;DHT22;6128;59.340;18.040;2023-12-04T02:19:07;-7.10;99.90
12130;DHT22;6128;59.340;18.040;2023-12-04T02:21:34;-7.10;99.90
12130;DHT22;6128;59.340;18.040;2023-12-04T02:24:03;-7.10;99.90
12130;DHT22;6128;59.340;18.040;2023-12-04T02:26:34;-7.10;99.90
12130;DHT22;6128;59.340;18.040;2023-12-04T02:29:05;-7.10;99.90
12130;DHT22;6128;59.340;18.040;2023-12-04T02:31:38;-7.10;99.90
12130;DHT22;6128;59.340;18.040;2023-12-04T02:34:07;-7.10;99.90
12130;DHT22;6128;59.340;18.040;2023-12-04T02:36:35;-7.10;99.90
12130;DHT22;6128;59.340;18.040;2023-12-04T02:39:04;-7.10;99.90
12130;DHT22;6128;59.340;18.040;2023-12-04T02:41:32;-7.20;99.90
12130;DHT22;6128;59.340;18.040;2023-12-04T02:43:59;-7.10;99.90
12130;DHT22;6128;59.340;18.040;2023-12-04T02:46:28;-7.10;99.90
12130;DHT22;6128;59.340;18.040;2023-12-04T02:48:55;-7.10;99.90
12130;DHT22;6128;59.340;18.040;2023-12-04T02:51:22;-7.10;99.90
12130;DHT22;6128;59.340;18.040;2023-12-04T02:53:52;-7.10;99.90
12130;DHT22;6128;59.340;18.040;2023-12-04T02:56:20;-7.00;99.90
12130;DHT22;6128;59.340;18.040;2023-12-04T02:58:47;-7.00;99.90
12130;DHT22;6128;59.340;18.040;2023-12-04T03:01:14;-7.00;99.90
12130;DHT22;6128;59.340;18.040;2023-12-04T03:03:41;-7.00;99.90
12130;DHT22;6128;59.340;18.040;2023-12-04T03:06:08;-7.00;99.90
12130;DHT22;6128;59.340;18.040;2023-12-04T03:08:38;-7.10;99.90
12130;DHT22;6128;59.340;18.040;2023-12-04T03:11:05;-7.10;99.90
12130;DHT22;6128;59.340;18.040;2023-12-04T03:13:34;-7.10;99.90
12130;DHT22;6128;59.340;18.040;2023-12-04T03:16:01;-7.20;99.90
12130;DHT22;6128;59.340;18.040;2023-12-04T03:18:28;-7.20;99.90
12130;DHT22;6128;59.340;18.040;2023-12-04T03:20:55;-7.20;99.90
12130;DHT22;6128;59.340;18.040;2023-12-04T03:23:22;-7.20;99.90
12130;DHT22;6128;59.340;18.040;2023-12-04T03:25:49;-7.30;99.90
12130;DHT22;6128;59.340;18.040;2023-12-04T03:28:17;-7.40;99.90
12130;DHT22;6128;59.340;18.040;2023-12-04T03:30:45;-7.40;99.90
12130;DHT22;6128;59.340;18.040;2023-12-04T03:33:12;-7.50;99.90
12130;DHT22;6128;59.340;18.040;2023-12-04T03:35:40;-7.60;99.90
12130;DHT22;6128;59.340;18.040;2023-12-04T03:38:07;-7.60;99.90
12130;DHT22;6128;59.340;18.040;2023-12-04T03:40:34;-7.60;99.90
12130;DHT22;6128;59.340;18.040;2023-12-04T03:43:01;-7.70;99.90
12130;DHT22;6128;59.340;18.040;2023-12-04T03:45:28;-7.70;99.90
12130;DHT22;6128;59.340;18.040;2023-12-04T03:47:57;-7.70;99.90
12130;DHT22;6128;59.340;18.040;2023-12-04T03:50:24;-7.70;99.90
12130;DHT22;6128;59.340;18.040;2023-12-04T03:52:51;-7.80;99.90
12130;DHT22;6128;59.340;18.040;2023-12-04T03:55:18;-7.80;99.90
12130;DHT22;6128;59.340;18.040;2023-12-04T03:57:45;-7.80;99.90
12130;DHT22;6128;59.340;18.040;2023-12-04T04:00:13;-7.80;99.90
12130;DHT22;6128;59.340;18.040;2023-12-04T04:02:43;-7.80;99.90
12130;DHT22;6128;59.340;18.040;2023-12-04T04:05:11;-7.90;99.90
12130;DHT22;6128;59.340;18.040;2023-12-04T04:07:39;-7.90;99.90
12130;DHT22;6128;59.340;18.040;2023-12-04T04:10:07;-7.90;99.90
12130;DHT22;6128;59.340;18.040;2023-12-04T04:12:34;-7.90;99.90
12130;DHT22;6128;59.340;18.040;2023-12-04T04:15:02;-7.90;99.90
12130;DHT22;6128;59.340;18.040;2023-12-04T04:17:29;-7.90;99.90
12130;DHT22;6128;59.340;18.040;2023-12-04T04:19:56;-7.90;99.90
12130;DHT22;6128;59.340;18.040;2023-12-04T04:22:24;-7.80;99.90
12130;DHT22;6128;59.340;18.040;2023-12-04T04:24:51;-7.80;99.90
12130;DHT22;6128;59.340;18.040;2023-12-04T04:27:19;-7.70;99.90
12130;DHT22;6128;59.340;18.040;2023-12-04T04:29:46;-7.70;99.90
12130;DHT22;6128;59.340;18.040;2023-12-04T04:32:12;-7.60;99.90
12130;DHT22;6128;59.340;18.040;2023-12-04T04:34:40;-7.50;99.90
12130;DHT22;6128;59.340;18.040;2023-12-04T04:37:07;-7.40;99.90
12130;DHT22;6128;59.340;18.040;2023-12-04T04:39:35;-7.40;99.90
12130;DHT22;6128;59.340;18.040;2023-12-04T04:42:02;-7.30;99.90
12130;DHT22;6128;59.340;18.040;2023-12-04T04:44:29;-7.30;99.90
12130;DHT22;6128;59.340;18.040;2023-12-04T04:46:56;-7.20;99.90
12130;DHT22;6128;59.340;18.040;2023-12-04T04:49:24;-7.10;99.90
12130;DHT22;6128;59.340;18.040;2023-12-04T04:51:51;-7.10;99.90
12130;DHT22;6128;59.340;18.040;2023-12-04T04:54:18;-7.10;99.90
12130;DHT22;6128;59.340;18.040;2023-12-04T04:56:46;-7.10;99.90
12130;DHT22;6128;59.340;18.040;2023-12-04T04:59:13;-7.00;99.90
12130;DHT22;6128;59.340;18.040;2023-12-04T05:01:40;-7.00;99.90
12130;DHT22;6128;59.340;18.040;2023-12-04T05:04:07;-7.00;99.90
12130;DHT22;6128;59.340;18.040;2023-12-04T05:06:34;-6.90;99.90
12130;DHT22;6128;59.340;18.040;2023-12-04T05:09:01;-6.90;99.90
12130;DHT22;6128;59.340;18.040;2023-12-04T05:11:30;-6.80;99.90
12130;DHT22;6128;59.340;18.040;2023-12-04T05:13:58;-6.80;99.90
12130;DHT22;6128;59.340;18.040;2023-12-04T05:16:25;-6.80;99.90
12130;DHT22;6128;59.340;18.040;2023-12-04T05:18:52;-6.80;99.90
12130;DHT22;6128;59.340;18.040;2023-12-04T05:21:19;-6.70;99.90
12130;DHT22;6128;59.340;18.040;2023-12-04T05:23:46;-6.70;99.90
12130;DHT22;6128;59.340;18.040;2023-12-04T05:26:13;-6.70;99.90
12130;DHT22;6128;59.340;18.040;2023-12-04T05:28:40;-6.60;99.90
12130;DHT22;6128;59.340;18.040;2023-12-04T05:31:09;-6.50;99.90
12130;DHT22;6128;59.340;18.040;2023-12-04T05:33:36;-6.50;99.90
12130;DHT22;6128;59.340;18.040;2023-12-04T05:36:04;-6.40;99.90
12130;DHT22;6128;59.340;18.040;2023-12-04T05:38:32;-6.40;99.90
12130;DHT22;6128;59.340;18.040;2023-12-04T05:40:59;-6.40;99.90
12130;DHT22;6128;59.340;18.040;2023-12-04T05:43:26;-6.40;99.90
12130;DHT22;6128;59.340;18.040;2023-12-04T05:45:53;-6.30;99.90
12130;DHT22;6128;59.340;18.040;2023-12-04T05:48:22;-6.30;99.90
12130;DHT22;6128;59.340;18.040;2023-12-04T05:50:49;-6.30;99.90
12130;DHT22;6128;59.340;18.040;2023-12-04T05:53:16;-6.30;99.90
12130;DHT22;6128;59.340;18.040;2023-12-04T05:55:43;-6.20;99.90
12130;DHT22;6128;59.340;18.040;2023-12-04T05:58:11;-6.20;99.90
12130;DHT22;6128;59.340;18.040;2023-12-04T06:00:38;-6.30;99.90
12130;DHT22;6128;59.340;18.040;2023-12-04T06:03:06;-6.30;99.90
12130;DHT22;6128;59.340;18.040;2023-12-04T06:05:35;-6.20;99.90
12130;DHT22;6128;59.340;18.040;2023-12-04T06:08:02;-6.30;99.90
12130;DHT22;6128;59.340;18.040;2023-12-04T06:10:29;-6.20;99.90
12130;DHT22;6128;59.340;18.040;2023-12-04T06:12:56;-6.20;99.90
12130;DHT22;6128;59.340;18.040;2023-12-04T06:15:23;-6.10;99.90
12130;DHT22;6128;59.340;18.040;2023-12-04T06:17:51;-6.10;99.90
12130;DHT22;6128;59.340;18.040;2023-12-04T06:20:18;-6.10;99.90
12130;DHT22;6128;59.340;18.040;2023-12-04T06:22:47;-6.10;99.90
12130;DHT22;6128;59.340;18.040;2023-12-04T06:25:15;-6.10;99.90
12130;DHT22;6128;59.340;18.040;2023-12-04T06:27:43;-6.10;99.90
12130;DHT22;6128;59.340;18.040;2023-12-04T06:30:14;-6.10;99.90
12130;DHT22;6128;59.340;18.040;2023-12-04T06:32:41;-6.10;99.90
12130;DHT22;6128;59.340;18.040;2023-12-04T06:35:10;-6.10;99.90
12130;DHT22;6128;59.340;18.040;2023-12-04T06:37:38;-6.20;99.90
12130;DHT22;6128;59.340;18.040;2023-12-04T06:40:08;-6.20;99.90
12130;DHT22;6128;59.340;18.040;2023-12-04T06:42:37;-6.20;99.90
12130;DHT22;6128;59.340;18.040;2023-12-04T06:45:05;-6.20;99.90
12130;DHT22;6128;59.340;18.040;2023-12-04T06:47:37;-6.20;99.90
12130;DHT22;6128;59.340;18.040;2023-12-04T06:50:06;-6.20;99.90
12130;DHT22;6128;59.340;18.040;2023-12-04T06:52:34;-6.20;99.90
12130;DHT22;6128;59.340;18.040;2023-12-04T06:55:01;-6.10;99.90
12130;DHT22;6128;59.340;18.040;2023-12-04T06:57:29;-6.10;99.90
12130;DHT22;6128;59.340;18.040;2023-12-04T06:59:56;-6.10;99.90
12130;DHT22;6128;59.340;18.040;2023-12-04T07:02:23;-6.10;99.90
12130;DHT22;6128;59.340;18.040;2023-12-04T07:04:50;-6.00;99.90
12130;DHT22;6128;59.340;18.040;2023-12-04T07:07:17;-6.00;99.90
12130;DHT22;6128;59.340;18.040;2023-12-04T07:09:44;-6.00;99.90
12130;DHT22;6128;59.340;18.040;2023-12-04T07:12:11;-6.00;99.90
12130;DHT22;6128;59.340;18.040;2023-12-04T07:14:40;-6.00;99.90
12130;DHT22;6128;59.340;18.040;2023-12-04T07:17:07;-6.00;99.90
12130;DHT22;6128;59.340;18.040;2023-12-04T07:19:34;-5.90;99.90
12130;DHT22;6128;59.340;18.040;2023-12-04T07:22:01;-5.90;99.90
12130;DHT22;6128;59.340;18.040;2023-12-04T07:24:31;-5.90;99.90
12130;DHT22;6128;59.340;18.040;2023-12-04T07:26:58;-6.00;99.90
12130;DHT22;6128;59.340;18.040;2023-12-04T07:29:25;-6.00;99.90
12130;DHT22;6128;59.340;18.040;2023-12-04T07:31:54;-6.00;99.90
12130;DHT22;6128;59.340;18.040;2023-12-04T07:34:21;-6.00;99.90
12130;DHT22;6128;59.340;18.040;2023-12-04T07:36:48;-6.00;99.90
12130;DHT22;6128;59.340;18.040;2023-12-04T07:39:15;-6.10;99.90
12130;DHT22;6128;59.340;18.040;2023-12-04T07:41:42;-6.10;99.90
12130;DHT22;6128;59.340;18.040;2023-12-04T07:44:09;-6.10;99.90
12130;DHT22;6128;59.340;18.040;2023-12-04T07:46:36;-6.10;99.90
12130;DHT22;6128;59.340;18.040;2023-12-04T07:49:04;-6.10;99.90
12130;DHT22;6128;59.340;18.040;2023-12-04T07:51:32;-6.10;99.90
12130;DHT22;6128;59.340;18.040;2023-12-04T07:54:02;-6.10;99.90
12130;DHT22;6128;59.340;18.040;2023-12-04T07:56:29;-6.10;99.90
12130;DHT22;6128;59.340;18.040;2023-12-04T07:58:56;-6.10;99.90
12130;DHT22;6128;59.340;18.040;2023-12-04T08:01:23;-6.20;99.90
12130;DHT22;6128;59.340;18.040;2023-12-04T08:03:50;-6.20;99.90
12130;DHT22;6128;59.340;18.040;2023-12-04T08:06:19;-6.20;99.90
12130;DHT22;6128;59.340;18.040;2023-12-04T08:08:46;-6.20;99.90
12130;DHT22;6128;59.340;18.040;2023-12-04T08:11:13;-6.20;99.90
12130;DHT22;6128;59.340;18.040;2023-12-04T08:13:40;-6.20;99.90
12130;DHT22;6128;59.340;18.040;2023-12-04T08:16:13;-6.20;99.90
12130;DHT22;6128;59.340;18.040;2023-12-04T08:18:42;-6.20;99.90
12130;DHT22;6128;59.340;18.040;2023-12-04T08:21:09;-6.20;99.90
12130;DHT22;6128;59.340;18.040;2023-12-04T08:23:38;-6.20;99.90
12130;DHT22;6128;59.340;18.040;2023-12-04T08:26:09;-6.20;99.90
12130;DHT22;6128;59.340;18.040;2023-12-04T08:28:36;-6.10;99.90
12130;DHT22;6128;59.340;18.040;2023-12-04T08:31:07;-6.20;99.90
12130;DHT22;6128;59.340;18.040;2023-12-04T08:33:37;-6.10;99.90
12130;DHT22;6128;59.340;18.040;2023-12-04T08:36:04;-6.10;99.90
12130;DHT22;6128;59.340;18.040;2023-12-04T08:38:32;-6.10;99.90
12130;DHT22;6128;59.340;18.040;2023-12-04T08:41:00;-6.10;99.90
12130;DHT22;6128;59.340;18.040;2023-12-04T08:43:27;-6.10;99.90
12130;DHT22;6128;59.340;18.040;2023-12-04T08:45:54;-6.10;99.90
12130;DHT22;6128;59.340;18.040;2023-12-04T08:48:21;-6.00;99.90
12130;DHT22;6128;59.340;18.040;2023-12-04T08:50:48;-6.10;99.90
12130;DHT22;6128;59.340;18.040;2023-12-04T08:53:16;-6.00;99.90
12130;DHT22;6128;59.340;18.040;2023-12-04T08:55:43;-6.10;99.90
12130;DHT22;6128;59.340;18.040;2023-12-04T08:58:11;-6.00;99.90
12130;DHT22;6128;59.340;18.040;2023-12-04T09:00:38;-6.00;99.90
12130;DHT22;6128;59.340;18.040;2023-12-04T09:03:08;-6.00;99.90
12130;DHT22;6128;59.340;18.040;2023-12-04T09:05:36;-6.00;99.90
12130;DHT22;6128;59.340;18.040;2023-12-04T09:08:03;-6.00;99.90
12130;DHT22;6128;59.340;18.040;2023-12-04T09:10:30;-5.90;99.90
12130;DHT22;6128;59.340;18.040;2023-12-04T09:12:57;-5.90;99.90
12130;DHT22;6128;59.340;18.040;2023-12-04T09:15:25;-5.90;99.90
12130;DHT22;6128;59.340;18.040;2023-12-04T09:17:53;-5.80;99.90
12130;DHT22;6128;59.340;18.040;2023-12-04T09:20:20;-5.80;99.90
12130;DHT22;6128;59.340;18.040;2023-12-04T09:22:47;-5.80;99.90
12130;DHT22;6128;59.340;18.040;2023-12-04T09:25:14;-5.80;99.90
12130;DHT22;6128;59.340;18.040;2023-12-04T09:27:42;-5.70;99.90
12130;DHT22;6128;59.340;18.040;2023-12-04T09:30:09;-5.70;99.90
12130;DHT22;6128;59.340;18.040;2023-12-04T09:32:38;-5.60;99.90
12130;DHT22;6128;59.340;18.040;2023-12-04T09:35:05;-5.60;99.90
12130;DHT22;6128;59.340;18.040;2023-12-04T09:37:33;-5.60;99.90
12130;DHT22;6128;59.340;18.040;2023-12-04T09:40:00;-5.50;99.90
12130;DHT22;6128;59.340;18.040;2023-12-04T09:42:28;-5.60;99.90
12130;DHT22;6128;59.340;18.040;2023-12-04T09:44:56;-5.50;99.90
12130;DHT22;6128;59.340;18.040;2023-12-04T09:47:26;-5.50;99.90
12130;DHT22;6128;59.340;18.040;2023-12-04T09:49:56;-5.50;99.90
12130;DHT22;6128;59.340;18.040;2023-12-04T09:52:23;-5.40;99.90
12130;DHT22;6128;59.340;18.040;2023-12-04T09:54:51;-5.30;99.90
12130;DHT22;6128;59.340;18.040;2023-12-04T09:57:18;-5.30;99.90
12130;DHT22;6128;59.340;18.040;2023-12-04T09:59:46;-5.30;99.90
12130;DHT22;6128;59.340;18.040;2023-12-04T10:02:14;-5.20;99.90
12130;DHT22;6128;59.340;18.040;2023-12-04T10:04:42;-5.30;99.90
12130;DHT22;6128;59.340;18.040;2023-12-04T10:07:09;-5.20;99.90
12130;DHT22;6128;59.340;18.040;2023-12-04T10:09:36;-5.20;99.90
12130;DHT22;6128;59.340;18.040;2023-12-04T10:12:06;-5.10;99.90
12130;DHT22;6128;59.340;18.040;2023-12-04T10:14:33;-5.10;99.90
12130;DHT22;6128;59.340;18.040;2023-12-04T10:17:14;-5.10;99.90
12130;DHT22;6128;59.340;18.040;2023-12-04T10:19:41;-5.00;99.90
12130;DHT22;6128;59.340;18.040;2023-12-04T10:22:09;-5.00;99.90
12130;DHT22;6128;59.340;18.040;2023-12-04T10:24:38;-4.90;99.90
12130;DHT22;6128;59.340;18.040;2023-12-04T10:27:07;-4.90;99.90
12130;DHT22;6128;59.340;18.040;2023-12-04T10:29:42;-4.90;99.90
12130;DHT22;6128;59.340;18.040;2023-12-04T10:32:10;-4.80;99.90
12130;DHT22;6128;59.340;18.040;2023-12-04T10:34:37;-4.80;99.90
12130;DHT22;6128;59.340;18.040;2023-12-04T10:37:05;-4.80;99.90
12130;DHT22;6128;59.340;18.040;2023-12-04T10:39:45;-4.80;99.90
12130;DHT22;6128;59.340;18.040;2023-12-04T10:42:25;-4.80;99.90
12130;DHT22;6128;59.340;18.040;2023-12-04T10:44:54;-4.80;99.90
12130;DHT22;6128;59.340;18.040;2023-12-04T10:47:22;-4.80;99.90
12130;DHT22;6128;59.340;18.040;2023-12-04T10:49:50;-4.80;99.90
12130;DHT22;6128;59.340;18.040;2023-12-04T10:52:17;-4.90;99.90
12130;DHT22;6128;59.340;18.040;2023-12-04T10:54:46;-4.90;99.90
12130;DHT22;6128;59.340;18.040;2023-12-04T10:57:20;-4.80;99.90
12130;DHT22;6128;59.340;18.040;2023-12-04T10:59:48;-4.80;99.90
12130;DHT22;6128;59.340;18.040;2023-12-04T11:02:21;-4.80;99.90
12130;DHT22;6128;59.340;18.040;2023-12-04T11:04:50;-4.70;99.90
12130;DHT22;6128;59.340;18.040;2023-12-04T11:07:22;-4.70;99.90
12130;DHT22;6128;59.340;18.040;2023-12-04T11:09:55;-4.60;99.90
12130;DHT22;6128;59.340;18.040;2023-12-04T11:12:25;-4.60;99.90
12130;DHT22;6128;59.340;18.040;2023-12-04T11:14:59;-4.60;99.90
12130;DHT22;6128;59.340;18.040;2023-12-04T11:17:33;-4.60;99.90
12130;DHT22;6128;59.340;18.040;2023-12-04T11:20:04;-4.60;99.90
12130;DHT22;6128;59.340;18.040;2023-12-04T11:22:34;-4.70;99.90
12130;DHT22;6128;59.340;18.040;2023-12-04T11:25:08;-4.70;99.90
12130;DHT22;6128;59.340;18.040;2023-12-04T11:27:37;-4.70;99.90
12130;DHT22;6128;59.340;18.040;2023-12-04T11:30:05;-4.70;99.90
12130;DHT22;6128;59.340;18.040;2023-12-04T11:32:43;-4.70;99.90
12130;DHT22;6128;59.340;18.040;2023-12-04T11:35:13;-4.60;99.90
12130;DHT22;6128;59.340;18.040;2023-12-04T11:37:41;-4.50;99.90
12130;DHT22;6128;59.340;18.040;2023-12-04T11:40:12;-4.50;99.90
12130;DHT22;6128;59.340;18.040;2023-12-04T11:42:41;-4.50;99.90
12130;DHT22;6128;59.340;18.040;2023-12-04T11:45:18;-4.40;99.90
12130;DHT22;6128;59.340;18.040;2023-12-04T11:47:53;-4.40;99.90
12130;DHT22;6128;59.340;18.040;2023-12-04T11:50:21;-4.40;99.90
12130;DHT22;6128;59.340;18.040;2023-12-04T11:52:48;-4.30;99.90
12130;DHT22;6128;59.340;18.040;2023-12-04T11:55:20;-4.30;99.90
12130;DHT22;6128;59.340;18.040;2023-12-04T11:57:50;-4.40;99.90
12130;DHT22;6128;59.340;18.040;2023-12-04T12:00:24;-4.40;99.90
12130;DHT22;6128;59.340;18.040;2023-12-04T12:03:02;-4.40;99.90
12130;DHT22;6128;59.340;18.040;2023-12-04T12:05:32;-4.30;99.90
12130;DHT22;6128;59.340;18.040;2023-12-04T12:08:01;-4.30;99.90
12130;DHT22;6128;59.340;18.040;2023-12-04T12:10:31;-4.40;99.90
12130;DHT22;6128;59.340;18.040;2023-12-04T12:12:59;-4.40;99.90
12130;DHT22;6128;59.340;18.040;2023-12-04T12:15:27;-4.40;99.90
12130;DHT22;6128;59.340;18.040;2023-12-04T12:17:55;-4.40;99.90
12130;DHT22;6128;59.340;18.040;2023-12-04T12:20:22;-4.40;99.90
12130;DHT22;6128;59.340;18.040;2023-12-04T12:22:49;-4.40;99.90
12130;DHT22;6128;59.340;18.040;2023-12-04T12:25:17;-4.40;99.90
12130;DHT22;6128;59.340;18.040;2023-12-04T12:27:46;-4.40;99.90
12130;DHT22;6128;59.340;18.040;2023-12-04T12:30:13;-4.40;99.90
12130;DHT22;6128;59.340;18.040;2023-12-04T12:32:40;-4.40;99.90
12130;DHT22;6128;59.340;18.040;2023-12-04T12:35:08;-4.40;99.90
12130;DHT22;6128;59.340;18.040;2023-12-04T12:37:38;-4.50;99.90
12130;DHT22;6128;59.340;18.040;2023-12-04T12:40:06;-4.50;99.90
12130;DHT22;6128;59.340;18.040;2023-12-04T12:42:36;-4.50;99.90
12130;DHT22;6128;59.340;18.040;2023-12-04T12:45:06;-4.60;99.90
12130;DHT22;6128;59.340;18.040;2023-12-04T12:47:36;-4.70;99.90
12130;DHT22;6128;59.340;18.040;2023-12-04T12:50:03;-4.70;99.90
12130;DHT22;6128;59.340;18.040;2023-12-04T12:52:33;-4.80;99.90
12130;DHT22;6128;59.340;18.040;2023-12-04T12:55:00;-4.80;99.90
12130;DHT22;6128;59.340;18.040;2023-12-04T12:57:27;-4.80;99.90
12130;DHT22;6128;59.340;18.040;2023-12-04T12:59:55;-4.90;99.90
12130;DHT22;6128;59.340;18.040;2023-12-04T13:02:23;-4.90;99.90
12130;DHT22;6128;59.340;18.040;2023-12-04T13:04:51;-4.90;99.90
12130;DHT22;6128;59.340;18.040;2023-12-04T13:07:18;-4.90;99.90
12130;DHT22;6128;59.340;18.040;2023-12-04T13:09:46;-4.90;99.90
12130;DHT22;6128;59.340;18.040;2023-12-04T13:12:14;-4.90;99.90
12130;DHT22;6128;59.340;18.040;2023-12-04T13:14:41;-4.90;99.90
12130;DHT22;6128;59.340;18.040;2023-12-04T13:17:08;-4.90;99.90
12130;DHT22;6128;59.340;18.040;2023-12-04T13:19:37;-4.90;99.90
12130;DHT22;6128;59.340;18.040;2023-12-04T13:22:07;-4.90;99.90
12130;DHT22;6128;59.340;18.040;2023-12-04T13:24:34;-4.90;99.90
12130;DHT22;6128;59.340;18.040;2023-12-04T13:27:01;-4.90;99.90
12130;DHT22;6128;59.340;18.040;2023-12-04T13:29:28;-4.90;99.90
12130;DHT22;6128;59.340;18.040;2023-12-04T13:31:55;-4.90;99.90
12130;DHT22;6128;59.340;18.040;2023-12-04T13:34:22;-4.90;99.90
12130;DHT22;6128;59.340;18.040;2023-12-04T13:36:51;-4.90;99.90
12130;DHT22;6128;59.340;18.040;2023-12-04T13:39:18;-4.90;99.90
12130;DHT22;6128;59.340;18.040;2023-12-04T13:41:46;-5.00;99.90
12130;DHT22;6128;59.340;18.040;2023-12-04T13:44:30;-5.00;99.90
12130;DHT22;6128;59.340;18.040;2023-12-04T13:46:59;-5.00;99.90
12130;DHT22;6128;59.340;18.040;2023-12-04T13:49:26;-5.10;99.90
12130;DHT22;6128;59.340;18.040;2023-12-04T13:51:54;-5.10;99.90
12130;DHT22;6128;59.340;18.040;2023-12-04T13:54:23;-5.10;99.90
12130;DHT22;6128;59.340;18.040;2023-12-04T13:57:01;-5.20;99.90
12130;DHT22;6128;59.340;18.040;2023-12-04T13:59:31;-5.20;99.90
12130;DHT22;6128;59.340;18.040;2023-12-04T14:02:00;-5.30;99.90
12130;DHT22;6128;59.340;18.040;2023-12-04T14:04:30;-5.30;99.90
12130;DHT22;6128;59.340;18.040;2023-12-04T14:06:58;-5.30;99.90
12130;DHT22;6128;59.340;18.040;2023-12-04T14:09:25;-5.40;99.90
12130;DHT22;6128;59.340;18.040;2023-12-04T14:11:55;-5.40;99.90
12130;DHT22;6128;59.340;18.040;2023-12-04T14:14:22;-5.50;99.90
12130;DHT22;6128;59.340;18.040;2023-12-04T14:16:49;-5.50;99.90
12130;DHT22;6128;59.340;18.040;2023-12-04T14:19:16;-5.50;99.90
12130;DHT22;6128;59.340;18.040;2023-12-04T14:21:51;-5.50;99.90
12130;DHT22;6128;59.340;18.040;2023-12-04T14:24:42;-5.60;99.90
12130;DHT22;6128;59.340;18.040;2023-12-04T14:27:09;-5.60;99.90
12130;DHT22;6128;59.340;18.040;2023-12-04T14:29:36;-5.60;99.90
12130;DHT22;6128;59.340;18.040;2023-12-04T14:32:04;-5.60;99.90
12130;DHT22;6128;59.340;18.040;2023-12-04T14:34:31;-5.60;99.90
12130;DHT22;6128;59.340;18.040;2023-12-04T14:36:59;-5.70;99.90
12130;DHT22;6128;59.340;18.040;2023-12-04T14:39:26;-5.60;99.90
12130;DHT22;6128;59.340;18.040;2023-12-04T14:41:54;-5.60;99.90
12130;DHT22;6128;59.340;18.040;2023-12-04T14:44:22;-5.70;99.90
12130;DHT22;6128;59.340;18.040;2023-12-04T14:46:49;-5.70;99.90
12130;DHT22;6128;59.340;18.040;2023-12-04T14:49:16;-5.70;99.90
12130;DHT22;6128;59.340;18.040;2023-12-04T14:51:43;-5.70;99.90
12130;DHT22;6128;59.340;18.040;2023-12-04T14:54:14;-5.70;99.90
12130;DHT22;6128;59.340;18.040;2023-12-04T14:56:47;-5.70;99.90
12130;DHT22;6128;59.340;18.040;2023-12-04T14:59:29;-5.70;99.90
12130;DHT22;6128;59.340;18.040;2023-12-04T15:02:22;-5.80;99.90
12130;DHT22;6128;59.340;18.040;2023-12-04T15:05:24;-5.80;99.90
12130;DHT22;6128;59.340;18.040;2023-12-04T15:08:18;-5.90;99.90
12130;DHT22;6128;59.340;18.040;2023-12-04T15:11:01;-5.90;99.90
12130;DHT22;6128;59.340;18.040;2023-12-04T15:13:51;-5.90;99.90
12130;DHT22;6128;59.340;18.040;2023-12-04T15:16:31;-5.90;99.90
12130;DHT22;6128;59.340;18.040;2023-12-04T15:19:01;-5.90;99.90
12130;DHT22;6128;59.340;18.040;2023-12-04T15:21:57;-6.00;99.90
12130;DHT22;6128;59.340;18.040;2023-12-04T15:24:24;-6.00;99.90
12130;DHT22;6128;59.340;18.040;2023-12-04T15:26:51;-6.00;99.90
12130;DHT22;6128;59.340;18.040;2023-12-04T15:29:18;-6.00;99.90
12130;DHT22;6128;59.340;18.040;2023-12-04T15:31:48;-6.00;99.90
12130;DHT22;6128;59.340;18.040;2023-12-04T15:34:14;-6.00;99.90
12130;DHT22;6128;59.340;18.040;2023-12-04T15:36:41;-6.10;99.90
12130;DHT22;6128;59.340;18.040;2023-12-04T15:39:07;-6.10;99.90